Time,TemperatureF,DewpointF,PressureIn,WindDirection,WindDirectionDegrees,WindSpeedMPH,WindSpeedGustMPH,Humidity,HourlyPrecipIn,Conditions,Clouds,dailyrainin,SoftwareType,DateUTC
2013-03-20 00:04:00,51.2,0.0,29.71,WSW,248,0.0,2.0,0,0.14,,-RA,0.01,VWS V13.01,2013-03-20 07:04:00,
2013-03-20 00:09:00,51.2,0.0,29.70,SW,227,0.0,3.0,0,0.15,,-RA,0.02,VWS V13.01,2013-03-20 07:09:00,
2013-03-20 00:14:00,51.3,0.0,29.70,West,278,3.0,3.0,0,0.16,,-RA,0.03,VWS V13.01,2013-03-20 07:14:00,
2013-03-20 00:19:00,51.4,0.0,29.70,WSW,247,0.0,4.0,0,0.12,,-RA,0.04,VWS V13.01,2013-03-20 07:19:00,
2013-03-20 00:24:00,51.0,0.0,29.70,West,266,1.0,4.0,0,0.13,,-RA,0.05,VWS V13.01,2013-03-20 07:24:00,
2013-03-20 00:29:00,51.0,0.0,29.70,SW,232,1.0,2.0,0,0.15,,-RA,0.07,VWS V13.01,2013-03-20 07:29:00,
2013-03-20 00:34:00,51.0,0.0,29.70,SW,232,0.0,2.0,0,0.15,,-RA,0.10,VWS V13.01,2013-03-20 07:34:00,
2013-03-20 00:39:00,50.8,0.0,29.70,WSW,245,0.0,2.0,0,0.16,,-RA,0.11,VWS V13.01,2013-03-20 07:39:00,
2013-03-20 00:44:00,50.9,0.0,29.70,WSW,258,1.0,1.0,0,0.17,,-RA,0.12,VWS V13.01,2013-03-20 07:44:00,
2013-03-20 00:49:00,51.1,0.0,29.70,West,268,1.0,6.0,0,0.15,,-RA,0.13,VWS V13.01,2013-03-20 07:49:00,
2013-03-20 00:54:00,51.3,0.0,29.69,WSW,252,2.0,6.0,0,0.16,,-RA,0.14,VWS V13.01,2013-03-20 07:54:00,
2013-03-20 01:00:00,51.4,0.0,29.69,WSW,257,2.0,2.0,0,0.16,,-RA,0.14,VWS V13.01,2013-03-20 08:00:00,
2013-03-20 01:05:00,51.6,0.0,29.69,SSW,207,1.0,5.0,0,0.14,,-RA,0.14,VWS V13.01,2013-03-20 08:05:00,
2013-03-20 01:10:00,51.7,0.0,29.69,SSW,202,5.0,7.0,0,0.15,,-RA,0.15,VWS V13.01,2013-03-20 08:10:00,
2013-03-20 01:15:00,52.0,0.0,29.68,WSW,243,2.0,3.0,0,0.15,,-RA,0.15,VWS V13.01,2013-03-20 08:15:00,
2013-03-20 01:20:00,52.1,0.0,29.68,SSW,193,0.0,7.0,0,0.12,,-RA,0.15,VWS V13.01,2013-03-20 08:20:00,
2013-03-20 01:25:00,52.2,0.0,29.67,West,267,3.0,7.0,0,0.12,,-RA,0.15,VWS V13.01,2013-03-20 08:25:00,
2013-03-20 01:30:00,52.3,0.0,29.67,West,259,4.0,7.0,0,0.08,,-RA,0.15,VWS V13.01,2013-03-20 08:30:00,
2013-03-20 01:35:00,52.6,0.0,29.67,East,91,5.0,9.0,0,0.09,,-RA,0.16,VWS V13.01,2013-03-20 08:35:00,
2013-03-20 01:40:00,52.9,0.0,29.67,NW,311,2.0,10.0,0,0.09,,-RA,0.16,VWS V13.01,2013-03-20 08:40:00,
2013-03-20 01:45:00,52.9,0.0,29.67,SW,236,5.0,10.0,0,0.04,,RA,0.16,VWS V13.01,2013-03-20 08:45:00,
2013-03-20 01:50:00,53.1,0.0,29.67,SSE,165,2.0,12.0,0,0.04,,RA,0.16,VWS V13.01,2013-03-20 08:50:00,
2013-03-20 01:55:00,53.2,0.0,29.67,SSW,199,1.0,12.0,0,0.04,,RA,0.16,VWS V13.01,2013-03-20 08:55:00,
2013-03-20 02:00:00,53.3,0.0,29.66,SSW,205,0.0,6.0,0,0.02,,RA,0.16,VWS V13.01,2013-03-20 09:00:00,
2013-03-20 02:06:00,53.2,0.0,29.66,SSW,196,7.0,11.0,0,0.02,,RA,0.16,VWS V13.01,2013-03-20 09:06:00,
2013-03-20 02:11:00,53.3,0.0,29.66,SW,215,5.0,11.0,0,0.02,,RA,0.16,VWS V13.01,2013-03-20 09:11:00,
2013-03-20 02:16:00,53.1,0.0,29.66,SW,235,2.0,4.0,0,0.02,,RA,0.17,VWS V13.01,2013-03-20 09:16:00,
2013-03-20 02:21:00,53.1,0.0,29.67,WSW,250,2.0,9.0,0,0.03,,RA,0.18,VWS V13.01,2013-03-20 09:21:00,
2013-03-20 02:26:00,53.1,0.0,29.67,WSW,240,0.0,9.0,0,0.04,,RA,0.19,VWS V13.01,2013-03-20 09:26:00,
2013-03-20 02:31:00,53.1,0.0,29.67,SSE,151,5.0,5.0,0,0.05,,RA,0.20,VWS V13.01,2013-03-20 09:31:00,
2013-03-20 02:37:00,53.0,0.0,29.67,WNW,287,2.0,5.0,0,0.05,,RA,0.20,VWS V13.01,2013-03-20 09:37:00,
2013-03-20 02:42:00,53.0,0.0,29.67,SSE,167,1.0,7.0,0,0.05,,OVC041,0.21,VWS V13.01,2013-03-20 09:42:00,
2013-03-20 02:47:00,53.1,0.0,29.66,WSW,240,4.0,7.0,0,0.05,,OVC041,0.21,VWS V13.01,2013-03-20 09:47:00,
2013-03-20 02:52:00,53.0,0.0,29.67,South,180,9.0,9.0,0,0.06,,OVC041,0.22,VWS V13.01,2013-03-20 09:52:00,
2013-03-20 02:57:00,53.1,0.0,29.66,SSE,163,6.0,15.0,0,0.07,,OVC041,0.23,VWS V13.01,2013-03-20 09:57:00,
2013-03-20 03:02:00,53.3,0.0,29.66,SW,225,3.0,12.0,0,0.08,,OVC041,0.24,VWS V13.01,2013-03-20 10:02:00,
2013-03-20 03:07:00,53.3,0.0,29.66,SSE,167,4.0,12.0,0,0.08,,OVC041,0.24,VWS V13.01,2013-03-20 10:07:00,
2013-03-20 03:12:00,53.3,0.0,29.66,SSW,209,3.0,12.0,0,0.08,,OVC041,0.24,VWS V13.01,2013-03-20 10:12:00,
2013-03-20 03:17:00,53.2,0.0,29.65,West,280,3.0,14.0,0,0.08,,OVC041,0.25,VWS V13.01,2013-03-20 10:17:00,
2013-03-20 03:22:00,53.3,0.0,29.64,WNW,284,2.0,14.0,0,0.09,,OVC041,0.26,VWS V13.01,2013-03-20 10:22:00,
2013-03-20 03:27:00,53.3,0.0,29.65,West,278,1.0,14.0,0,0.10,,OVC041,0.27,VWS V13.01,2013-03-20 10:27:00,
2013-03-20 03:32:00,53.2,0.0,29.64,SSE,150,3.0,5.0,0,0.09,,OVC041,0.28,VWS V13.01,2013-03-20 10:32:00,
2013-03-20 03:37:00,53.2,0.0,29.65,NW,312,3.0,6.0,0,0.09,,OVC041,0.29,VWS V13.01,2013-03-20 10:37:00,
2013-03-20 03:42:00,53.2,0.0,29.65,East,92,3.0,9.0,0,0.10,,OVC055,0.30,VWS V13.01,2013-03-20 10:42:00,
2013-03-20 03:48:00,53.2,0.0,29.65,SSE,166,7.0,10.0,0,0.09,,OVC055,0.30,VWS V13.01,2013-03-20 10:48:00,
2013-03-20 03:53:00,53.2,0.0,29.65,SE,142,0.0,11.0,0,0.10,,OVC055,0.31,VWS V13.01,2013-03-20 10:53:00,
2013-03-20 03:58:00,53.3,0.0,29.65,West,263,3.0,11.0,0,0.11,,OVC055,0.32,VWS V13.01,2013-03-20 10:58:00,
2013-03-20 04:03:00,53.3,0.0,29.65,SW,224,5.0,10.0,0,0.10,,OVC055,0.33,VWS V13.01,2013-03-20 11:03:00,
2013-03-20 04:08:00,53.2,0.0,29.64,SSW,212,3.0,12.0,0,0.11,,OVC055,0.34,VWS V13.01,2013-03-20 11:08:00,
2013-03-20 04:13:00,53.2,0.0,29.64,SSE,158,3.0,12.0,0,0.11,,OVC055,0.34,VWS V13.01,2013-03-20 11:13:00,
2013-03-20 04:18:00,53.2,0.0,29.64,South,188,4.0,7.0,0,0.10,,OVC055,0.34,VWS V13.01,2013-03-20 11:18:00,
2013-03-20 04:23:00,53.3,0.0,29.64,SE,134,6.0,13.0,0,0.11,,OVC055,0.35,VWS V13.01,2013-03-20 11:23:00,
2013-03-20 04:28:00,53.3,0.0,29.65,SSW,200,2.0,13.0,0,0.11,,OVC055,0.35,VWS V13.01,2013-03-20 11:28:00,
2013-03-20 04:33:00,53.3,0.0,29.64,SSW,197,7.0,10.0,0,0.08,,-RA,0.35,VWS V13.01,2013-03-20 11:33:00,
2013-03-20 04:38:00,53.2,0.0,29.64,SSE,152,6.0,10.0,0,0.09,,-RA,0.36,VWS V13.01,2013-03-20 11:38:00,
2013-03-20 04:43:00,53.2,0.0,29.64,SSE,167,4.0,10.0,0,0.10,,-RA,0.37,VWS V13.01,2013-03-20 11:43:00,
2013-03-20 04:49:00,53.1,0.0,29.64,WSW,241,4.0,9.0,0,0.08,,-RA,0.38,VWS V13.01,2013-03-20 11:49:00,
2013-03-20 04:54:00,53.1,0.0,29.64,SW,230,4.0,14.0,0,0.10,,-RA,0.40,VWS V13.01,2013-03-20 11:54:00,
2013-03-20 04:59:00,53.1,0.0,29.64,East,94,5.0,14.0,0,0.10,,-RA,0.40,VWS V13.01,2013-03-20 11:59:00,
2013-03-20 05:04:00,53.0,0.0,29.63,SSE,161,7.0,8.0,0,0.09,,-RA,0.41,VWS V13.01,2013-03-20 12:04:00,
2013-03-20 05:09:00,53.0,0.0,29.63,SE,141,0.0,8.0,0,0.10,,-RA,0.42,VWS V13.01,2013-03-20 12:09:00,
2013-03-20 05:14:00,52.9,0.0,29.63,SW,215,1.0,10.0,0,0.11,,-RA,0.43,VWS V13.01,2013-03-20 12:14:00,
2013-03-20 05:19:00,53.0,0.0,29.63,SSE,155,6.0,15.0,0,0.10,,-RA,0.44,VWS V13.01,2013-03-20 12:19:00,
2013-03-20 05:24:00,53.0,0.0,29.63,SE,138,5.0,15.0,0,0.10,,-RA,0.44,VWS V13.01,2013-03-20 12:24:00,
2013-03-20 05:29:00,53.0,0.0,29.63,SW,232,3.0,15.0,0,0.10,,-RA,0.44,VWS V13.01,2013-03-20 12:29:00,
2013-03-20 05:34:00,52.9,0.0,29.63,SW,219,3.0,7.0,0,0.10,,-RA,0.45,VWS V13.01,2013-03-20 12:34:00,
2013-03-20 05:39:00,52.9,0.0,29.63,West,274,3.0,9.0,0,0.10,,-RA,0.45,VWS V13.01,2013-03-20 12:39:00,
2013-03-20 05:44:00,53.0,0.0,29.63,SSE,163,6.0,6.0,0,0.10,,-RA,0.45,VWS V13.01,2013-03-20 12:44:00,
2013-03-20 05:49:00,53.1,0.0,29.63,SSW,201,12.0,12.0,0,0.07,,-RA,0.45,VWS V13.01,2013-03-20 12:49:00,
2013-03-20 05:54:00,53.1,0.0,29.62,South,173,9.0,14.0,0,0.08,,-RA,0.46,VWS V13.01,2013-03-20 12:54:00,
2013-03-20 05:59:00,53.1,0.0,29.63,South,179,5.0,7.0,0,0.08,,-RA,0.46,VWS V13.01,2013-03-20 12:59:00,
2013-03-20 06:04:00,53.1,0.0,29.63,NNW,338,6.0,10.0,0,0.08,,-RA,0.48,VWS V13.01,2013-03-20 13:04:00,
2013-03-20 06:09:00,53.1,0.0,29.63,WSW,243,4.0,11.0,0,0.10,,-RA,0.50,VWS V13.01,2013-03-20 13:09:00,
2013-03-20 06:14:00,53.1,0.0,29.63,South,188,5.0,5.0,0,0.11,,-RA,0.52,VWS V13.01,2013-03-20 13:14:00,
2013-03-20 06:20:00,53.0,0.0,29.63,SW,227,1.0,5.0,0,0.10,,-RA,0.53,VWS V13.01,2013-03-20 13:20:00,
2013-03-20 06:25:00,52.9,0.0,29.63,SSE,150,1.0,7.0,0,0.12,,-RA,0.55,VWS V13.01,2013-03-20 13:25:00,
2013-03-20 06:30:00,52.8,0.0,29.62,ESE,120,2.0,4.0,0,0.15,,-RA,0.58,VWS V13.01,2013-03-20 13:30:00,
2013-03-20 06:35:00,52.9,0.0,29.63,WSW,238,3.0,11.0,0,0.15,,-RA,0.60,VWS V13.01,2013-03-20 13:35:00,
2013-03-20 06:40:00,53.0,0.0,29.63,South,169,3.0,12.0,0,0.18,,-RA,0.62,VWS V13.01,2013-03-20 13:40:00,
2013-03-20 06:45:00,52.9,0.0,29.63,SW,219,5.0,12.0,0,0.19,,-RA,0.64,VWS V13.01,2013-03-20 13:45:00,
2013-03-20 06:50:00,52.9,0.0,29.63,ESE,112,4.0,13.0,0,0.21,,-RA,0.66,VWS V13.01,2013-03-20 13:50:00,
2013-03-20 06:55:00,52.9,0.0,29.63,SSE,157,2.0,13.0,0,0.23,,-RA,0.68,VWS V13.01,2013-03-20 13:55:00,
2013-03-20 07:00:00,53.0,0.0,29.63,WNW,298,1.0,7.0,0,0.24,,-RA,0.70,VWS V13.01,2013-03-20 14:00:00,
2013-03-20 07:05:00,53.0,0.0,29.64,WSW,237,2.0,8.0,0,0.26,,-RA,0.72,VWS V13.01,2013-03-20 14:05:00,
2013-03-20 07:10:00,52.8,0.0,29.64,South,179,7.0,10.0,0,0.26,,-RA,0.72,VWS V13.01,2013-03-20 14:10:00,
2013-03-20 07:15:00,52.8,0.0,29.65,SSW,213,2.0,3.0,0,0.23,,-RA,0.74,VWS V13.01,2013-03-20 14:15:00,
2013-03-20 07:20:00,52.6,0.0,29.65,ESE,119,1.0,10.0,0,0.25,,-RA,0.76,VWS V13.01,2013-03-20 14:20:00,
2013-03-20 07:25:00,52.5,0.0,29.66,SE,126,7.0,10.0,0,0.28,,-RA,0.80,VWS V13.01,2013-03-20 14:25:00,
2013-03-20 07:31:00,51.9,0.0,29.67,SSW,192,7.0,17.0,0,0.25,,-RA,0.83,VWS V13.01,2013-03-20 14:31:00,
2013-03-20 07:36:00,51.2,0.0,29.68,SE,136,10.0,18.0,0,0.25,,-RA,0.83,VWS V13.01,2013-03-20 14:36:00,
2013-03-20 07:41:00,50.5,0.0,29.68,SSE,167,1.0,18.0,0,0.26,,-RA,0.84,VWS V13.01,2013-03-20 14:41:00,
2013-03-20 07:46:00,50.1,0.0,29.69,South,172,3.0,4.0,0,0.22,,-RA,0.85,VWS V13.01,2013-03-20 14:46:00,
2013-03-20 07:52:00,49.8,0.0,29.70,SE,139,3.0,6.0,0,0.23,,-RA,0.86,VWS V13.01,2013-03-20 14:52:00,
2013-03-20 07:57:00,49.5,0.0,29.70,SE,134,5.0,6.0,0,0.23,,-RA,0.87,VWS V13.01,2013-03-20 14:57:00,
2013-03-20 08:02:00,49.2,0.0,29.70,WSW,242,0.0,2.0,0,0.18,,-RA,0.88,VWS V13.01,2013-03-20 15:02:00,
2013-03-20 08:07:00,49.1,0.0,29.71,NNW,347,0.0,4.0,0,0.20,,-RA,0.90,VWS V13.01,2013-03-20 15:07:00,
2013-03-20 08:12:00,48.9,0.0,29.71,SW,215,0.0,6.0,0,0.21,,-RA,0.91,VWS V13.01,2013-03-20 15:12:00,
2013-03-20 08:17:00,48.8,0.0,29.72,SW,215,0.0,0.0,0,0.20,,-RA,0.94,VWS V13.01,2013-03-20 15:17:00,
2013-03-20 08:23:00,48.6,0.0,29.72,West,261,2.0,3.0,0,0.22,,-RA,0.96,VWS V13.01,2013-03-20 15:23:00,
2013-03-20 08:28:00,48.6,0.0,29.72,West,261,0.0,3.0,0,0.23,,-RA,0.98,VWS V13.01,2013-03-20 15:28:00,
2013-03-20 08:33:00,48.6,0.0,29.73,SSW,205,1.0,2.0,0,0.17,,-RA,0.99,VWS V13.01,2013-03-20 15:33:00,
2013-03-20 08:38:00,48.3,0.0,29.74,SE,140,2.0,8.0,0,0.18,,-RA,1.00,VWS V13.01,2013-03-20 15:38:00,
2013-03-20 08:43:00,48.2,0.0,29.75,SSE,150,3.0,8.0,0,0.19,,-RA,1.01,VWS V13.01,2013-03-20 15:43:00,
2013-03-20 08:48:00,47.8,0.0,29.76,SSW,199,3.0,15.0,0,0.17,,-RA,1.01,VWS V13.01,2013-03-20 15:48:00,
2013-03-20 08:53:00,47.6,0.0,29.75,SE,134,8.0,15.0,0,0.17,,-RA,1.01,VWS V13.01,2013-03-20 15:53:00,
2013-03-20 08:59:00,47.5,0.0,29.76,SSE,167,3.0,15.0,0,0.18,,-RA,1.02,VWS V13.01,2013-03-20 15:59:00,
2013-03-20 09:04:00,47.4,0.0,29.76,ESE,122,1.0,5.0,0,0.15,,-RA,1.02,VWS V13.01,2013-03-20 16:04:00,
2013-03-20 09:09:00,47.5,0.0,29.77,SE,124,0.0,5.0,0,0.16,,-RA,1.03,VWS V13.01,2013-03-20 16:09:00,
2013-03-20 09:14:00,47.4,0.0,29.78,SE,139,3.0,5.0,0,0.16,,-RA,1.03,VWS V13.01,2013-03-20 16:14:00,
2013-03-20 09:19:00,47.4,0.0,29.78,SSE,155,0.0,4.0,0,0.12,,-RA,1.04,VWS V13.01,2013-03-20 16:19:00,
2013-03-20 09:24:00,47.5,0.0,29.79,SE,132,1.0,6.0,0,0.12,,-RA,1.04,VWS V13.01,2013-03-20 16:24:00,
2013-03-20 09:29:00,47.5,0.0,29.79,SE,126,1.0,6.0,0,0.12,,-RA,1.04,VWS V13.01,2013-03-20 16:29:00,
2013-03-20 09:34:00,47.4,0.0,29.80,South,188,6.0,8.0,0,0.06,,-RA,1.04,VWS V13.01,2013-03-20 16:34:00,
2013-03-20 09:39:00,47.2,0.0,29.80,WSW,238,2.0,9.0,0,0.06,,-RA,1.04,VWS V13.01,2013-03-20 16:39:00,
2013-03-20 09:44:00,47.2,0.0,29.80,SSE,149,0.0,0.0,0,0.06,,-RA,1.04,VWS V13.01,2013-03-20 16:44:00,
2013-03-20 09:49:00,47.3,0.0,29.81,ESE,121,0.0,4.0,0,0.03,,-RA,1.04,VWS V13.01,2013-03-20 16:49:00,
2013-03-20 09:54:00,47.1,0.0,29.81,East,92,0.0,4.0,0,0.03,,-RA,1.04,VWS V13.01,2013-03-20 16:54:00,
2013-03-20 09:59:00,47.1,0.0,29.81,South,188,1.0,2.0,0,0.03,,-RA,1.04,VWS V13.01,2013-03-20 16:59:00,
2013-03-20 10:04:00,47.1,0.0,29.81,SSW,207,0.0,2.0,0,0.02,,-RA,1.04,VWS V13.01,2013-03-20 17:04:00,
2013-03-20 10:09:00,47.1,0.0,29.81,SW,217,0.0,2.0,0,0.03,,-RA,1.05,VWS V13.01,2013-03-20 17:09:00,
2013-03-20 10:14:00,47.1,0.0,29.82,East,92,2.0,3.0,0,0.03,,-RA,1.05,VWS V13.01,2013-03-20 17:14:00,
2013-03-20 10:19:00,47.1,0.0,29.82,ESE,107,0.0,3.0,0,0.03,,-RA,1.06,VWS V13.01,2013-03-20 17:19:00,
2013-03-20 10:24:00,47.1,0.0,29.83,SW,227,1.0,9.0,0,0.03,,-RA,1.06,VWS V13.01,2013-03-20 17:24:00,
2013-03-20 10:29:00,47.0,0.0,29.83,WSW,238,0.0,3.0,0,0.04,,-RA,1.07,VWS V13.01,2013-03-20 17:29:00,
2013-03-20 10:35:00,47.1,0.0,29.84,SE,130,7.0,7.0,0,0.03,,BKN070,1.07,VWS V13.01,2013-03-20 17:35:00,
2013-03-20 10:40:00,46.8,0.0,29.84,SW,215,6.0,12.0,0,0.03,,BKN070,1.07,VWS V13.01,2013-03-20 17:40:00,
2013-03-20 10:45:00,46.8,0.0,29.85,SSW,197,0.0,2.0,0,0.03,,BKN070,1.07,VWS V13.01,2013-03-20 17:45:00,
2013-03-20 10:50:00,46.8,0.0,29.85,South,182,0.0,4.0,0,0.03,,BKN070,1.07,VWS V13.01,2013-03-20 17:50:00,
2013-03-20 10:55:00,46.7,0.0,29.85,NE,44,3.0,7.0,0,0.03,,BKN070,1.07,VWS V13.01,2013-03-20 17:55:00,
2013-03-20 11:00:00,46.9,0.0,29.86,ESE,123,1.0,3.0,0,0.03,,BKN070,1.07,VWS V13.01,2013-03-20 18:00:00,
2013-03-20 11:05:00,46.9,0.0,29.86,ESE,110,3.0,5.0,0,0.03,,BKN070,1.07,VWS V13.01,2013-03-20 18:05:00,
2013-03-20 11:10:00,47.0,0.0,29.86,SE,131,7.0,7.0,0,0.03,,BKN070,1.07,VWS V13.01,2013-03-20 18:10:00,
2013-03-20 11:15:00,47.0,0.0,29.86,SE,143,0.0,1.0,0,0.02,,BKN070,1.07,VWS V13.01,2013-03-20 18:15:00,
2013-03-20 11:20:00,47.1,0.0,29.87,South,178,0.0,5.0,0,0.03,,BKN070,1.08,VWS V13.01,2013-03-20 18:20:00,
2013-03-20 11:25:00,46.8,0.0,29.87,SW,223,5.0,19.0,0,0.04,,BKN070,1.09,VWS V13.01,2013-03-20 18:25:00,
2013-03-20 11:30:00,46.9,0.0,29.88,ESE,121,4.0,4.0,0,0.02,,BKN070,1.09,VWS V13.01,2013-03-20 18:30:00,
2013-03-20 11:35:00,46.9,0.0,29.88,South,178,2.0,4.0,0,0.02,,OVC033,1.09,VWS V13.01,2013-03-20 18:35:00,
2013-03-20 11:40:00,47.0,0.0,29.88,SSE,166,5.0,7.0,0,0.02,,OVC033,1.09,VWS V13.01,2013-03-20 18:40:00,
2013-03-20 11:45:00,47.4,0.0,29.88,SSW,193,0.0,4.0,0,0.02,,OVC033,1.09,VWS V13.01,2013-03-20 18:45:00,
2013-03-20 11:50:00,47.5,0.0,29.88,East,87,0.0,4.0,0,0.02,,OVC033,1.09,VWS V13.01,2013-03-20 18:50:00,
2013-03-20 11:56:00,47.6,0.0,29.89,NE,51,3.0,4.0,0,0.03,,OVC033,1.10,VWS V13.01,2013-03-20 18:56:00,
2013-03-20 12:01:00,47.3,0.0,29.90,South,175,1.0,1.0,0,0.03,,OVC033,1.10,VWS V13.01,2013-03-20 19:01:00,
2013-03-20 12:06:00,47.7,0.0,29.89,NW,319,0.0,2.0,0,0.03,,OVC033,1.10,VWS V13.01,2013-03-20 19:06:00,
2013-03-20 12:11:00,48.0,0.0,29.90,ESE,117,1.0,3.0,0,0.03,,OVC033,1.10,VWS V13.01,2013-03-20 19:11:00,
2013-03-20 12:16:00,48.1,0.0,29.90,South,176,4.0,11.0,0,0.03,,OVC033,1.10,VWS V13.01,2013-03-20 19:16:00,
2013-03-20 12:21:00,47.4,0.0,29.91,SSE,156,9.0,14.0,0,0.04,,OVC033,1.11,VWS V13.01,2013-03-20 19:21:00,
2013-03-20 12:27:00,47.4,0.0,29.91,South,174,1.0,14.0,0,0.04,,OVC033,1.11,VWS V13.01,2013-03-20 19:27:00,
2013-03-20 12:32:00,47.5,0.0,29.91,South,190,3.0,6.0,0,0.02,,-RA,1.11,VWS V13.01,2013-03-20 19:32:00,
2013-03-20 12:37:00,47.3,0.0,29.91,SSW,197,7.0,12.0,0,0.02,,-RA,1.11,VWS V13.01,2013-03-20 19:37:00,
2013-03-20 12:42:00,47.3,0.0,29.92,North,9,2.0,12.0,0,0.02,,-RA,1.11,VWS V13.01,2013-03-20 19:42:00,
2013-03-20 12:47:00,47.3,0.0,29.92,South,181,3.0,3.0,0,0.02,,-RA,1.11,VWS V13.01,2013-03-20 19:47:00,
2013-03-20 12:52:00,47.4,0.0,29.92,ESE,114,5.0,6.0,0,0.02,,-RA,1.11,VWS V13.01,2013-03-20 19:52:00,
2013-03-20 12:57:00,47.7,0.0,29.92,South,169,4.0,6.0,0,0.02,,-RA,1.11,VWS V13.01,2013-03-20 19:57:00,
2013-03-20 13:02:00,47.8,0.0,29.92,SE,134,1.0,7.0,0,0.01,,-RA,1.11,VWS V13.01,2013-03-20 20:02:00,
2013-03-20 13:07:00,47.8,0.0,29.93,SW,222,4.0,7.0,0,0.02,,-RA,1.12,VWS V13.01,2013-03-20 20:07:00,
2013-03-20 13:13:00,47.6,0.0,29.93,SSW,197,3.0,7.0,0,0.02,,-RA,1.12,VWS V13.01,2013-03-20 20:13:00,
2013-03-20 13:18:00,47.7,0.0,29.94,South,184,2.0,10.0,0,0.02,,-RA,1.12,VWS V13.01,2013-03-20 20:18:00,
2013-03-20 13:23:00,48.0,0.0,29.94,South,190,7.0,10.0,0,0.02,,-RA,1.12,VWS V13.01,2013-03-20 20:23:00,
2013-03-20 13:28:00,48.0,0.0,29.94,SSW,206,4.0,13.0,0,0.02,,-RA,1.12,VWS V13.01,2013-03-20 20:28:00,
2013-03-20 13:33:00,48.1,0.0,29.95,SE,128,1.0,5.0,0,0.01,,BKN065,1.12,VWS V13.01,2013-03-20 20:33:00,
2013-03-20 13:38:00,48.2,0.0,29.95,SSW,193,3.0,5.0,0,0.01,,BKN065,1.12,VWS V13.01,2013-03-20 20:38:00,
2013-03-20 13:43:00,48.2,0.0,29.95,ENE,57,1.0,7.0,0,0.01,,BKN065,1.12,VWS V13.01,2013-03-20 20:43:00,
2013-03-20 13:48:00,48.5,0.0,29.95,SE,140,0.0,4.0,0,0.01,,BKN065,1.12,VWS V13.01,2013-03-20 20:48:00,
2013-03-20 13:53:00,48.2,0.0,29.95,SE,134,4.0,7.0,0,0.01,,BKN065,1.12,VWS V13.01,2013-03-20 20:53:00,
2013-03-20 13:58:00,48.2,0.0,29.96,ESE,102,3.0,7.0,0,0.01,,BKN065,1.12,VWS V13.01,2013-03-20 20:58:00,
2013-03-20 14:03:00,47.7,0.0,29.96,SE,126,4.0,6.0,0,0.01,,BKN065,1.12,VWS V13.01,2013-03-20 21:03:00,
2013-03-20 14:08:00,47.2,0.0,29.96,SSE,161,2.0,10.0,0,0.01,,BKN065,1.12,VWS V13.01,2013-03-20 21:08:00,
2013-03-20 14:13:00,47.0,0.0,29.96,ESE,104,0.0,10.0,0,0.01,,BKN065,1.12,VWS V13.01,2013-03-20 21:13:00,
2013-03-20 14:18:00,47.1,0.0,29.97,SE,134,1.0,4.0,0,0.00,,BKN065,1.12,VWS V13.01,2013-03-20 21:18:00,
2013-03-20 14:23:00,46.5,-30.4,29.97,SE,145,4.0,12.0,3,0.00,,BKN065,1.12,VWS V13.01,2013-03-20 21:23:00,
2013-03-20 14:28:00,46.4,0.0,29.97,SW,233,2.0,12.0,0,0.00,,BKN065,1.12,VWS V13.01,2013-03-20 21:28:00,
2013-03-20 14:33:00,46.6,0.0,29.97,SW,217,2.0,6.0,0,0.00,,BKN065,1.12,VWS V13.01,2013-03-20 21:33:00,
2013-03-20 14:38:00,47.2,0.0,29.97,South,182,3.0,6.0,0,0.00,,BKN065,1.12,VWS V13.01,2013-03-20 21:38:00,
2013-03-20 14:44:00,47.0,0.0,29.97,SE,125,0.0,7.0,0,0.00,,-RA,1.12,VWS V13.01,2013-03-20 21:44:00,
2013-03-20 14:49:00,46.9,0.0,29.98,SE,132,10.0,11.0,0,0.00,,-RA,1.12,VWS V13.01,2013-03-20 21:49:00,
2013-03-20 14:54:00,46.9,0.0,29.98,SE,135,0.0,12.0,0,0.00,,-RA,1.12,VWS V13.01,2013-03-20 21:54:00,
2013-03-20 14:59:00,47.0,-1.3,29.98,South,169,11.0,13.0,13,0.00,,-RA,1.12,VWS V13.01,2013-03-20 21:59:00,
2013-03-20 15:04:00,47.3,4.7,29.98,SE,134,6.0,11.0,17,0.00,,-RA,1.12,VWS V13.01,2013-03-20 22:04:00,
2013-03-20 15:09:00,47.9,-24.1,29.98,SSE,159,5.0,11.0,4,0.00,,-RA,1.12,VWS V13.01,2013-03-20 22:09:00,
2013-03-20 15:14:00,48.7,10.5,29.99,SSE,160,1.0,11.0,21,0.00,,-RA,1.12,VWS V13.01,2013-03-20 22:14:00,
2013-03-20 15:19:00,48.6,24.2,29.99,SE,130,4.0,11.0,38,0.00,,-RA,1.12,VWS V13.01,2013-03-20 22:19:00,
2013-03-20 15:24:00,48.7,13.5,30.00,South,190,0.0,11.0,24,0.00,,-RA,1.13,VWS V13.01,2013-03-20 22:24:00,
2013-03-20 15:29:00,48.6,7.0,30.00,ENE,72,0.0,1.0,18,0.01,,-RA,1.13,VWS V13.01,2013-03-20 22:29:00,
2013-03-20 15:34:00,48.1,13.0,30.00,SSW,198,4.0,15.0,24,0.01,,BKN100,1.13,VWS V13.01,2013-03-20 22:34:00,
2013-03-20 15:39:00,47.7,6.3,30.00,South,172,1.0,15.0,18,0.01,,BKN100,1.13,VWS V13.01,2013-03-20 22:39:00,
2013-03-20 15:44:00,47.6,-16.5,30.00,ENE,59,4.0,4.0,6,0.01,,BKN100,1.13,VWS V13.01,2013-03-20 22:44:00,
2013-03-20 15:49:00,47.5,0.0,30.01,NE,42,7.0,7.0,0,0.01,,BKN100,1.13,VWS V13.01,2013-03-20 22:49:00,
2013-03-20 15:54:00,47.3,0.0,30.01,NNE,31,1.0,13.0,0,0.01,,BKN100,1.13,VWS V13.01,2013-03-20 22:54:00,
2013-03-20 15:59:00,46.9,0.0,30.01,NE,44,0.0,1.0,0,0.01,,BKN100,1.13,VWS V13.01,2013-03-20 22:59:00,
2013-03-20 16:05:00,46.8,0.0,30.01,NE,47,4.0,5.0,0,0.01,,BKN100,1.13,VWS V13.01,2013-03-20 23:05:00,
2013-03-20 16:10:00,46.6,0.0,30.01,SE,131,4.0,6.0,0,0.01,,BKN100,1.13,VWS V13.01,2013-03-20 23:10:00,
2013-03-20 16:15:00,46.5,-5.2,30.02,SSE,157,3.0,4.0,11,0.01,,BKN100,1.13,VWS V13.01,2013-03-20 23:15:00,
2013-03-20 16:20:00,46.8,0.0,30.02,ENE,75,2.0,9.0,0,0.01,,BKN100,1.13,VWS V13.01,2013-03-20 23:20:00,
2013-03-20 16:25:00,47.2,0.0,30.02,ESE,119,4.0,9.0,0,0.01,,BKN100,1.13,VWS V13.01,2013-03-20 23:25:00,
2013-03-20 16:30:00,47.0,-3.0,30.02,SSE,161,3.0,7.0,12,0.00,,BKN100,1.13,VWS V13.01,2013-03-20 23:30:00,
2013-03-20 16:35:00,46.9,16.3,30.02,ENE,76,2.0,7.0,29,0.00,,BKN095,1.13,VWS V13.01,2013-03-20 23:35:00,
2013-03-20 16:40:00,46.9,0.0,30.03,SE,132,0.0,7.0,0,0.00,,BKN095,1.13,VWS V13.01,2013-03-20 23:40:00,
2013-03-20 16:45:00,46.6,0.0,30.04,SSW,192,1.0,3.0,14,0.01,,BKN095,1.14,VWS V13.01,2013-03-20 23:45:00,
2013-03-20 16:50:00,46.1,0.0,30.05,ESE,110,11.0,13.0,0,0.01,,BKN095,1.14,VWS V13.01,2013-03-20 23:50:00,
2013-03-20 16:55:00,45.0,0.0,30.05,SSW,198,1.0,13.0,0,0.01,,BKN095,1.14,VWS V13.01,2013-03-20 23:55:00,
2013-03-20 17:00:00,44.6,0.0,30.06,SSE,155,0.0,6.0,0,0.01,,BKN095,1.14,VWS V13.01,2013-03-21 00:00:00,
2013-03-20 17:05:00,44.4,0.0,30.07,SE,146,4.0,6.0,0,0.02,,BKN095,1.15,VWS V13.01,2013-03-21 00:05:00,
2013-03-20 17:10:00,43.8,0.0,30.07,ESE,114,0.0,6.0,0,0.02,,BKN095,1.16,VWS V13.01,2013-03-21 00:10:00,
2013-03-20 17:16:00,43.5,0.0,30.07,SSE,163,3.0,5.0,0,0.03,,BKN100,1.16,VWS V13.01,2013-03-21 00:16:00,
2013-03-20 17:21:00,43.4,0.0,30.07,SE,129,0.0,5.0,0,0.03,,BKN100,1.16,VWS V13.01,2013-03-21 00:21:00,
2013-03-20 17:26:00,43.4,0.0,30.07,SSE,148,1.0,5.0,0,0.03,,BKN100,1.16,VWS V13.01,2013-03-21 00:26:00,
2013-03-20 17:31:00,43.4,0.0,30.07,SSE,153,3.0,5.0,0,0.03,,BKN100,1.16,VWS V13.01,2013-03-21 00:31:00,
2013-03-20 17:36:00,43.4,0.0,30.07,South,173,0.0,5.0,0,0.03,,BKN100,1.16,VWS V13.01,2013-03-21 00:36:00,
2013-03-20 17:41:00,43.5,0.0,30.07,ESE,109,3.0,5.0,0,0.03,,BKN100,1.16,VWS V13.01,2013-03-21 00:41:00,
2013-03-20 17:46:00,43.3,0.0,30.07,ESE,113,0.0,4.0,0,0.03,,BKN100,1.16,VWS V13.01,2013-03-21 00:46:00,
2013-03-20 17:51:00,43.3,0.0,30.08,SE,130,1.0,4.0,0,0.03,,BKN100,1.16,VWS V13.01,2013-03-21 00:51:00,
2013-03-20 17:57:00,43.2,0.0,30.08,ESE,107,0.0,4.0,0,0.03,,BKN100,1.16,VWS V13.01,2013-03-21 00:57:00,
2013-03-20 18:02:00,43.0,0.0,30.08,East,101,0.0,2.0,0,0.02,,BKN100,1.16,VWS V13.01,2013-03-21 01:02:00,
2013-03-20 18:07:00,43.2,0.0,30.08,East,101,0.0,2.0,0,0.02,,BKN100,1.16,VWS V13.01,2013-03-21 01:07:00,
2013-03-20 18:12:00,43.2,0.0,30.09,South,188,1.0,2.0,0,0.02,,BKN100,1.16,VWS V13.01,2013-03-21 01:12:00,
2013-03-20 18:17:00,43.3,0.0,30.09,South,188,0.0,2.0,0,0.00,,BKN100,1.16,VWS V13.01,2013-03-21 01:17:00,
2013-03-20 18:22:00,43.3,0.0,30.09,South,188,0.0,2.0,0,0.00,,BKN100,1.16,VWS V13.01,2013-03-21 01:22:00,
2013-03-20 18:27:00,43.4,0.0,30.09,South,188,0.0,2.0,0,0.00,,BKN100,1.16,VWS V13.01,2013-03-21 01:27:00,
2013-03-20 18:32:00,43.4,0.0,30.10,South,188,0.0,0.0,0,0.00,,-RA,1.16,VWS V13.01,2013-03-21 01:32:00,
2013-03-20 18:37:00,43.5,0.0,30.10,South,188,0.0,0.0,0,0.01,,-RA,1.17,VWS V13.01,2013-03-21 01:37:00,
2013-03-20 18:42:00,43.4,0.0,30.10,South,188,1.0,1.0,0,0.01,,-RA,1.17,VWS V13.01,2013-03-21 01:42:00,
2013-03-20 18:47:00,43.3,0.0,30.10,SSW,194,0.0,3.0,0,0.02,,-RA,1.18,VWS V13.01,2013-03-21 01:47:00,
2013-03-20 18:52:00,43.1,0.0,30.10,SSW,193,0.0,3.0,0,0.02,,-RA,1.18,VWS V13.01,2013-03-21 01:52:00,
2013-03-20 18:58:00,42.9,0.0,30.11,South,169,0.0,3.0,0,0.02,,-RA,1.18,VWS V13.01,2013-03-21 01:58:00,
2013-03-20 19:03:00,43.0,0.0,30.12,ESE,109,0.0,2.0,0,0.03,,-RA,1.19,VWS V13.01,2013-03-21 02:03:00,
2013-03-20 19:08:00,42.9,0.0,30.12,NE,54,1.0,5.0,0,0.03,,-RA,1.19,VWS V13.01,2013-03-21 02:08:00,
2013-03-20 19:13:00,42.8,0.0,30.12,East,96,1.0,5.0,0,0.03,,-RA,1.19,VWS V13.01,2013-03-21 02:13:00,
2013-03-20 19:18:00,42.7,0.0,30.12,East,96,0.0,1.0,0,0.03,,-RA,1.19,VWS V13.01,2013-03-21 02:18:00,
2013-03-20 19:23:00,42.6,0.0,30.13,SSW,200,0.0,3.0,0,0.03,,-RA,1.19,VWS V13.01,2013-03-21 02:23:00,
2013-03-20 19:28:00,42.4,0.0,30.13,SSW,200,0.0,3.0,0,0.03,,-RA,1.19,VWS V13.01,2013-03-21 02:28:00,
2013-03-20 19:33:00,42.4,0.0,30.14,SSW,200,0.0,0.0,0,0.03,,-RA,1.19,VWS V13.01,2013-03-21 02:33:00,
2013-03-20 19:38:00,42.2,0.0,30.14,SSW,200,1.0,1.0,0,0.03,,-RA,1.19,VWS V13.01,2013-03-21 02:38:00,
2013-03-20 19:43:00,42.2,0.0,30.14,SSW,200,0.0,1.0,0,0.04,,-RA,1.20,VWS V13.01,2013-03-21 02:43:00,
2013-03-20 19:48:00,42.0,0.0,30.14,SSW,200,0.0,0.0,0,0.02,,-RA,1.20,VWS V13.01,2013-03-21 02:48:00,
2013-03-20 19:53:00,42.0,0.0,30.15,SSW,200,0.0,0.0,0,0.02,,-RA,1.20,VWS V13.01,2013-03-21 02:53:00,
2013-03-20 19:58:00,41.9,0.0,30.15,SSW,208,0.0,0.0,0,0.02,,-RA,1.20,VWS V13.01,2013-03-21 02:58:00,
2013-03-20 20:03:00,41.9,0.0,30.15,SSW,208,0.0,0.0,0,0.02,,-RA,1.20,VWS V13.01,2013-03-21 03:03:00,
2013-03-20 20:08:00,41.9,0.0,30.15,SSW,208,0.0,0.0,0,0.02,,-RA,1.20,VWS V13.01,2013-03-21 03:08:00,
2013-03-20 20:14:00,41.9,0.0,30.15,SSW,208,0.0,0.0,0,0.02,,-RA,1.20,VWS V13.01,2013-03-21 03:14:00,
2013-03-20 20:19:00,41.9,0.0,30.16,SSW,208,0.0,0.0,0,0.01,,-RA,1.20,VWS V13.01,2013-03-21 03:19:00,
2013-03-20 20:24:00,41.8,0.0,30.16,SSW,208,0.0,0.0,0,0.01,,-RA,1.20,VWS V13.01,2013-03-21 03:24:00,
2013-03-20 20:29:00,41.8,0.0,30.16,SSW,208,0.0,0.0,0,0.01,,-RA,1.20,VWS V13.01,2013-03-21 03:29:00,
2013-03-20 20:34:00,41.7,0.0,30.16,SSW,208,2.0,2.0,0,0.01,,-RA,1.20,VWS V13.01,2013-03-21 03:34:00,
2013-03-20 20:39:00,41.7,0.0,30.17,SSW,207,2.0,3.0,0,0.01,,-RA,1.20,VWS V13.01,2013-03-21 03:39:00,
2013-03-20 20:44:00,41.6,0.0,30.17,SSW,211,0.0,3.0,0,0.01,,-RA,1.20,VWS V13.01,2013-03-21 03:44:00,
2013-03-20 20:49:00,41.5,0.0,30.18,SW,215,0.0,3.0,0,0.00,,-RA,1.20,VWS V13.01,2013-03-21 03:49:00,
2013-03-20 20:54:00,41.4,0.0,30.18,SW,215,1.0,3.0,0,0.00,,-RA,1.20,VWS V13.01,2013-03-21 03:54:00,
2013-03-20 20:59:00,41.3,0.0,30.18,SW,215,0.0,0.0,0,0.00,,-RA,1.20,VWS V13.01,2013-03-21 03:59:00,
2013-03-20 21:00:00,41.3,0.0,30.18,SW,215,0.0,0.0,0,0.00,,-RA,1.20,VWS V13.01,2013-03-21 04:00:00,
2013-03-20 21:01:00,41.2,0.0,30.18,SW,215,0.0,0.0,0,0.00,,-RA,1.20,VWS V13.01,2013-03-21 04:01:00,
2013-03-20 21:02:00,41.2,0.0,30.18,SW,215,0.0,0.0,0,0.00,,-RA,1.20,VWS V13.01,2013-03-21 04:02:00,
2013-03-20 21:07:00,41.1,0.0,30.18,SW,215,0.0,0.0,0,0.00,,-RA,1.20,VWS V13.01,2013-03-21 04:07:00,
2013-03-20 21:12:00,41.0,0.0,30.18,SW,215,0.0,0.0,0,0.00,,-RA,1.20,VWS V13.01,2013-03-21 04:12:00,
2013-03-20 21:17:00,40.9,0.0,30.19,SW,215,0.0,0.0,0,0.00,,-RA,1.20,VWS V13.01,2013-03-21 04:17:00,
2013-03-20 21:22:00,40.7,0.0,30.19,SW,215,0.0,3.0,0,0.00,,-RA,1.20,VWS V13.01,2013-03-21 04:22:00,
2013-03-20 21:27:00,40.5,0.0,30.19,SW,215,0.0,3.0,0,0.00,,-RA,1.20,VWS V13.01,2013-03-21 04:27:00,
2013-03-20 21:32:00,40.3,0.0,30.19,SW,215,0.0,0.0,0,0.00,,BKN075,1.20,VWS V13.01,2013-03-21 04:32:00,
2013-03-20 21:37:00,40.1,0.0,30.19,SW,215,0.0,0.0,0,0.00,,BKN075,1.20,VWS V13.01,2013-03-21 04:37:00,
2013-03-20 21:42:00,40.0,0.0,30.20,SW,215,0.0,1.0,0,0.01,,BKN075,1.21,VWS V13.01,2013-03-21 04:42:00,
2013-03-20 21:47:00,40.1,0.0,30.20,SW,215,0.0,1.0,0,0.01,,BKN075,1.21,VWS V13.01,2013-03-21 04:47:00,
2013-03-20 21:52:00,40.1,0.0,30.20,SW,230,2.0,3.0,0,0.01,,BKN075,1.21,VWS V13.01,2013-03-21 04:52:00,
2013-03-20 21:57:00,40.2,0.0,30.20,SSW,213,0.0,3.0,0,0.01,,BKN075,1.21,VWS V13.01,2013-03-21 04:57:00,
2013-03-20 22:02:00,40.1,0.0,30.21,SSW,213,0.0,1.0,0,0.01,,BKN075,1.21,VWS V13.01,2013-03-21 05:02:00,
2013-03-20 22:07:00,40.0,0.0,30.21,SSW,213,0.0,1.0,0,0.01,,BKN075,1.21,VWS V13.01,2013-03-21 05:07:00,
2013-03-20 22:12:00,39.8,0.0,30.21,SSW,213,0.0,1.0,0,0.01,,BKN075,1.21,VWS V13.01,2013-03-21 05:12:00,
2013-03-20 22:17:00,39.6,0.0,30.21,SSW,213,0.0,0.0,0,0.01,,BKN075,1.21,VWS V13.01,2013-03-21 05:17:00,
2013-03-20 22:23:00,39.4,0.0,30.22,SSW,213,0.0,0.0,0,0.01,,BKN075,1.21,VWS V13.01,2013-03-21 05:23:00,
2013-03-20 22:28:00,39.3,0.0,30.22,SSW,213,0.0,2.0,0,0.01,,BKN075,1.21,VWS V13.01,2013-03-21 05:28:00,
2013-03-20 22:33:00,39.2,0.0,30.22,SSW,213,0.0,0.0,0,0.01,,BKN075,1.21,VWS V13.01,2013-03-21 05:33:00,
2013-03-20 22:38:00,39.1,0.0,30.22,SSW,213,0.0,0.0,0,0.01,,BKN075,1.21,VWS V13.01,2013-03-21 05:38:00,
2013-03-20 22:43:00,39.1,0.0,30.22,SSW,213,0.0,0.0,0,0.01,,SCT075,1.21,VWS V13.01,2013-03-21 05:43:00,
2013-03-20 22:48:00,39.1,0.0,30.23,SSW,213,0.0,0.0,0,0.00,,SCT075,1.21,VWS V13.01,2013-03-21 05:48:00,
2013-03-20 22:53:00,38.9,0.0,30.23,SSW,213,0.0,0.0,0,0.00,,SCT075,1.21,VWS V13.01,2013-03-21 05:53:00,
2013-03-20 22:58:00,38.9,0.0,30.23,SSW,213,0.0,0.0,0,0.00,,SCT075,1.21,VWS V13.01,2013-03-21 05:58:00,
2013-03-20 23:03:00,38.8,0.0,30.23,SSW,213,0.0,0.0,0,0.00,,SCT075,1.21,VWS V13.01,2013-03-21 06:03:00,
2013-03-20 23:08:00,38.8,0.0,30.23,SSW,213,0.0,0.0,0,0.00,,SCT075,1.21,VWS V13.01,2013-03-21 06:08:00,
2013-03-20 23:13:00,38.8,0.0,30.24,SSW,213,0.0,0.0,0,0.00,,SCT075,1.21,VWS V13.01,2013-03-21 06:13:00,
2013-03-20 23:18:00,38.8,0.0,30.24,SSW,213,0.0,0.0,0,0.00,,SCT075,1.21,VWS V13.01,2013-03-21 06:18:00,
2013-03-20 23:23:00,38.8,0.0,30.24,SSW,213,0.0,1.0,0,0.00,,SCT075,1.21,VWS V13.01,2013-03-21 06:23:00,
2013-03-20 23:28:00,38.8,0.0,30.24,SSW,213,0.0,1.0,0,0.00,,SCT075,1.21,VWS V13.01,2013-03-21 06:28:00,
2013-03-20 23:33:00,38.7,0.0,30.24,SSW,213,0.0,0.0,0,0.00,,BKN070,1.21,VWS V13.01,2013-03-21 06:33:00,
2013-03-20 23:38:00,38.6,0.0,30.25,SSW,213,0.0,1.0,0,0.00,,BKN070,1.21,VWS V13.01,2013-03-21 06:38:00,
2013-03-20 23:43:00,38.5,0.0,30.25,SSW,213,1.0,1.0,0,0.00,,BKN070,1.21,VWS V13.01,2013-03-21 06:43:00,
2013-03-20 23:48:00,38.5,0.0,30.25,SSW,213,0.0,0.0,0,0.00,,BKN070,1.21,VWS V13.01,2013-03-21 06:48:00,
2013-03-20 23:53:00,38.4,0.0,30.25,SSW,213,0.0,0.0,0,0.00,,BKN070,1.21,VWS V13.01,2013-03-21 06:53:00,
2013-03-20 23:59:00,38.4,0.0,30.25,SSW,213,0.0,0.0,0,0.00,,BKN070,1.21,VWS V13.01,2013-03-21 06:59:00,